Time;durP1;ratioP1;P1;durP2;ratioP2;P2;SDS_P1;SDS_P2;PMS_P1;PMS_P2;Temp;Humidity;BMP_temperature;BMP_pressure;BME280_temperature;BME280_humidity;BME280_pressure;Samples;Min_cycle;Max_cycle;Signal;HPM_P1;HPM_P2
2022/02/28 00:00:52;;;;;;;10.00;7.00;;;;;;;;;;4947384;28;20657;-72
2022/02/28 00:03:23;;;;;;;9.90;7.30;;;;;;;;;;4942811;28;20230;-72
2022/02/28 00:05:51;;;;;;;9.53;7.30;;;;;;;;;;4960749;28;20693;-72
2022/02/28 00:08:16;;;;;;;9.53;7.60;;;;;;;;;;4937879;28;20222;-72
2022/02/28 00:10:49;;;;;;;9.67;7.73;;;;;;;;;;4954421;28;20225;-72
2022/02/28 00:13:18;;;;;;;12.20;7.80;;;;;;;;;;4950796;28;20301;-72
2022/02/28 00:15:43;;;;;;;10.33;7.77;;;;;;;;;;4948824;28;20230;-73
2022/02/28 00:18:11;;;;;;;9.67;7.23;;;;;;;;;;4946781;28;20233;-71
2022/02/28 00:20:39;;;;;;;13.33;8.43;;;;;;;;;;4931570;28;20214;-71
2022/02/28 00:23:05;;;;;;;13.23;7.40;;;;;;;;;;4960154;28;20577;-71
2022/02/28 00:25:35;;;;;;;11.03;8.00;;;;;;;;;;4945512;28;20229;-72
2022/02/28 00:28:02;;;;;;;10.00;7.73;;;;;;;;;;4961234;28;20305;-72
2022/02/28 00:30:28;;;;;;;10.63;8.13;;;;;;;;;;4921804;28;20230;-71
2022/02/28 00:32:56;;;;;;;10.83;8.17;;;;;;;;;;4961804;28;20272;-71
2022/02/28 00:35:21;;;;;;;10.00;7.83;;;;;;;;;;4944750;28;20246;-72
2022/02/28 00:37:47;;;;;;;11.23;8.20;;;;;;;;;;4938560;28;20313;-71
2022/02/28 00:40:15;;;;;;;11.80;7.90;;;;;;;;;;4950986;28;20310;-71
2022/02/28 00:42:40;;;;;;;11.43;8.37;;;;;;;;;;4951161;28;21306;-72
2022/02/28 00:45:06;;;;;;;12.40;8.87;;;;;;;;;;4960584;28;20258;-72
2022/02/28 00:47:34;;;;;;;11.10;8.73;;;;;;;;;;4966237;28;20226;-71
2022/02/28 00:50:01;;;;;;;12.50;8.27;;;;;;;;;;4936955;28;20227;-71
2022/02/28 00:52:30;;;;;;;12.77;8.70;;;;;;;;;;4956074;28;20226;-71
2022/02/28 00:54:55;;;;;;;13.17;9.20;;;;;;;;;;4947263;28;20764;-71
2022/02/28 00:57:23;;;;;;;11.50;9.13;;;;;;;;;;4941752;28;20257;-72
2022/02/28 00:59:51;;;;;;;11.93;9.07;;;;;;;;;;4931764;28;20940;-71
2022/02/28 01:02:20;;;;;;;11.37;9.40;;;;;;;;;;4956833;28;20230;-72
2022/02/28 01:04:49;;;;;;;12.07;8.63;;;;;;;;;;4939444;28;20222;-71
2022/02/28 01:07:16;;;;;;;12.30;9.07;;;;;;;;;;4937184;29;20226;-71
2022/02/28 01:09:44;;;;;;;11.13;9.00;;;;;;;;;;4944724;28;20222;-72
2022/02/28 01:12:10;;;;;;;12.17;9.17;;;;;;;;;;4954715;28;20226;-72
2022/02/28 01:14:36;;;;;;;11.43;9.03;;;;;;;;;;4956956;28;20236;-72
2022/02/28 01:17:01;;;;;;;11.60;8.67;;;;;;;;;;4926395;28;20694;-72
2022/02/28 01:19:29;;;;;;;14.77;10.20;;;;;;;;;;4942602;28;20226;-72
2022/02/28 01:22:00;;;;;;;13.63;9.23;;;;;;;;;;4926579;28;20292;-72
2022/02/28 01:24:27;;;;;;;13.53;8.87;;;;;;;;;;4932553;28;20225;-72
2022/02/28 01:26:53;;;;;;;12.93;9.07;;;;;;;;;;4966988;28;20242;-72
2022/02/28 01:29:23;;;;;;;12.30;9.67;;;;;;;;;;4931920;28;20313;-72
2022/02/28 01:31:49;;;;;;;12.47;9.47;;;;;;;;;;4940930;28;20236;-71
2022/02/28 01:34:17;;;;;;;13.03;9.33;;;;;;;;;;4965910;28;20773;-72
2022/02/28 01:36:47;;;;;;;14.17;10.13;;;;;;;;;;4949824;28;20222;-73
2022/02/28 01:39:18;;;;;;;15.60;10.10;;;;;;;;;;4964708;28;20244;-72
2022/02/28 01:41:43;;;;;;;13.27;9.63;;;;;;;;;;4959587;28;20222;-72
2022/02/28 01:44:09;;;;;;;16.00;9.77;;;;;;;;;;4920315;29;20295;-72
2022/02/28 01:46:40;;;;;;;13.40;9.97;;;;;;;;;;4916644;28;20218;-72
2022/02/28 01:49:05;;;;;;;13.13;10.17;;;;;;;;;;4940501;28;20225;-72
2022/02/28 01:51:31;;;;;;;14.80;9.73;;;;;;;;;;4945400;28;20604;-73
2022/02/28 01:53:59;;;;;;;14.20;10.60;;;;;;;;;;4927595;28;20596;-72
2022/02/28 01:56:29;;;;;;;15.57;9.70;;;;;;;;;;4955698;28;20658;-72
2022/02/28 01:58:54;;;;;;;14.00;10.87;;;;;;;;;;4949060;28;20219;-72
2022/02/28 02:01:20;;;;;;;14.53;10.17;;;;;;;;;;4965291;28;20220;-73
2022/02/28 02:03:46;;;;;;;12.07;10.10;;;;;;;;;;4961531;28;20226;-72
2022/02/28 02:06:14;;;;;;;14.53;10.10;;;;;;;;;;4928718;28;20294;-72
2022/02/28 02:08:40;;;;;;;16.80;10.87;;;;;;;;;;4935334;28;20596;-72
2022/02/28 02:11:08;;;;;;;17.27;10.27;;;;;;;;;;4936321;29;20285;-72
2022/02/28 02:13:34;;;;;;;14.30;10.43;;;;;;;;;;4957141;28;20615;-72
2022/02/28 02:16:00;;;;;;;13.00;10.10;;;;;;;;;;4916682;28;20230;-72
2022/02/28 02:18:26;;;;;;;15.83;11.10;;;;;;;;;;4938618;28;20302;-71
2022/02/28 02:20:53;;;;;;;15.97;11.13;;;;;;;;;;4938289;28;20218;-72
2022/02/28 02:23:20;;;;;;;15.83;10.17;;;;;;;;;;4930374;28;20737;-72
2022/02/28 02:25:46;;;;;;;12.13;10.20;;;;;;;;;;4955068;28;20226;-72
2022/02/28 02:28:17;;;;;;;14.23;10.53;;;;;;;;;;4933640;28;20237;-72
2022/02/28 02:30:49;;;;;;;17.53;11.53;;;;;;;;;;4922095;28;20289;-71
2022/02/28 02:33:17;;;;;;;16.80;11.27;;;;;;;;;;4967892;28;20222;-71
2022/02/28 02:35:54;;;;;;;15.70;10.90;;;;;;;;;;4936961;28;20234;-72
2022/02/28 02:38:22;;;;;;;14.40;11.43;;;;;;;;;;4924499;28;20300;-72
2022/02/28 02:40:50;;;;;;;15.70;11.33;;;;;;;;;;4925299;28;20272;-72
2022/02/28 02:43:16;;;;;;;17.13;10.93;;;;;;;;;;4945230;28;20235;-72
2022/02/28 02:45:43;;;;;;;15.83;11.03;;;;;;;;;;4940307;28;20206;-72
2022/02/28 02:48:14;;;;;;;15.90;11.20;;;;;;;;;;4923502;28;20218;-72
2022/02/28 02:50:40;;;;;;;17.43;11.37;;;;;;;;;;4913524;28;20219;-72
2022/02/28 02:53:05;;;;;;;14.73;11.03;;;;;;;;;;4963009;28;20226;-72
2022/02/28 02:55:31;;;;;;;17.00;11.23;;;;;;;;;;4959619;28;20793;-72
2022/02/28 02:58:00;;;;;;;15.80;11.53;;;;;;;;;;4936398;29;20222;-74
2022/02/28 03:00:29;;;;;;;16.37;11.43;;;;;;;;;;4930800;28;20214;-71
2022/02/28 03:03:08;;;;;;;15.17;11.27;;;;;;;;;;4951309;28;20213;-72
2022/02/28 03:05:34;;;;;;;15.13;11.33;;;;;;;;;;4963505;28;20222;-72
2022/02/28 03:08:03;;;;;;;16.10;11.27;;;;;;;;;;4953104;28;20603;-72
2022/02/28 03:10:29;;;;;;;16.77;12.03;;;;;;;;;;4963747;28;20238;-71
2022/02/28 03:12:59;;;;;;;17.43;12.13;;;;;;;;;;4920967;28;20219;-72
2022/02/28 03:15:28;;;;;;;15.07;10.77;;;;;;;;;;4946699;28;20237;-71
2022/02/28 03:17:57;;;;;;;18.97;12.10;;;;;;;;;;4945620;28;20215;-71
2022/02/28 03:20:23;;;;;;;15.17;11.23;;;;;;;;;;4963922;28;20642;-72
2022/02/28 03:22:52;;;;;;;18.17;11.27;;;;;;;;;;4936325;28;20313;-73
2022/02/28 03:25:18;;;;;;;16.70;11.20;;;;;;;;;;4952837;28;20222;-73
2022/02/28 03:27:53;;;;;;;17.27;11.97;;;;;;;;;;4947411;28;20223;-72
2022/02/28 03:30:22;;;;;;;17.80;11.97;;;;;;;;;;4949292;28;20225;-72
2022/02/28 03:32:48;;;;;;;16.70;11.87;;;;;;;;;;4946003;28;20218;-72
2022/02/28 03:35:14;;;;;;;19.93;13.23;;;;;;;;;;4930508;28;20234;-72
2022/02/28 03:37:42;;;;;;;19.27;12.90;;;;;;;;;;4945036;28;20330;-71
2022/02/28 03:40:10;;;;;;;18.47;11.80;;;;;;;;;;4938186;28;20214;-71
2022/02/28 03:42:36;;;;;;;16.73;12.50;;;;;;;;;;4943828;28;20310;-72
2022/02/28 03:45:02;;;;;;;16.93;12.30;;;;;;;;;;4963576;28;20304;-71
2022/02/28 03:47:27;;;;;;;21.43;12.87;;;;;;;;;;4927642;29;20780;-71
2022/02/28 03:50:18;;;;;;;18.07;12.70;;;;;;;;;;4952119;28;20226;-71
2022/02/28 03:52:43;;;;;;;18.40;12.87;;;;;;;;;;4944211;28;20305;-72
2022/02/28 03:55:23;;;;;;;20.73;13.30;;;;;;;;;;4935975;28;20220;-71
2022/02/28 03:57:51;;;;;;;18.13;13.00;;;;;;;;;;4951291;28;20230;-71
2022/02/28 04:00:24;;;;;;;18.93;11.90;;;;;;;;;;4968628;28;20222;-71
2022/02/28 04:02:53;;;;;;;15.87;11.97;;;;;;;;;;4941666;28;20222;-72
2022/02/28 04:05:19;;;;;;;17.70;12.40;;;;;;;;;;4936502;29;20698;-73
2022/02/28 04:07:47;;;;;;;19.17;12.67;;;;;;;;;;4922209;28;20233;-71
2022/02/28 04:10:13;;;;;;;17.27;12.20;;;;;;;;;;4916632;28;20226;-71
2022/02/28 04:12:40;;;;;;;17.93;12.87;;;;;;;;;;4944293;28;20228;-72
2022/02/28 04:15:08;;;;;;;17.10;11.63;;;;;;;;;;4920488;28;20254;-71
2022/02/28 04:17:37;;;;;;;20.17;13.27;;;;;;;;;;4960897;28;20249;-72
2022/02/28 04:20:20;;;;;;;18.60;12.50;;;;;;;;;;4936971;29;20233;-72
2022/02/28 04:22:46;;;;;;;21.00;13.77;;;;;;;;;;4947037;28;20222;-72
2022/02/28 04:25:16;;;;;;;20.07;13.27;;;;;;;;;;4970728;28;20216;-71
2022/02/28 04:27:42;;;;;;;17.60;12.93;;;;;;;;;;4947480;28;20305;-71
2022/02/28 04:30:11;;;;;;;18.80;12.97;;;;;;;;;;4941952;28;20221;-71
2022/02/28 04:32:41;;;;;;;19.10;13.30;;;;;;;;;;4933138;28;20710;-71
2022/02/28 04:35:11;;;;;;;17.97;12.67;;;;;;;;;;4966149;28;20214;-71
2022/02/28 04:37:40;;;;;;;19.07;13.30;;;;;;;;;;4965425;28;20226;-72
2022/02/28 04:40:09;;;;;;;21.97;13.67;;;;;;;;;;4940325;28;20258;-72
2022/02/28 04:42:37;;;;;;;19.63;13.83;;;;;;;;;;4925266;28;20222;-72
2022/02/28 04:45:05;;;;;;;17.97;13.33;;;;;;;;;;4942076;28;20261;-72
2022/02/28 04:47:33;;;;;;;19.93;14.07;;;;;;;;;;4956441;28;20214;-71
2022/02/28 04:50:08;;;;;;;20.13;14.13;;;;;;;;;;4937815;28;20218;-71
2022/02/28 04:52:34;;;;;;;24.10;14.13;;;;;;;;;;4939388;28;20705;-71
2022/02/28 04:55:02;;;;;;;21.00;13.43;;;;;;;;;;4925708;28;20210;-72
2022/02/28 04:57:31;;;;;;;19.73;14.03;;;;;;;;;;4925836;28;20225;-71
2022/02/28 04:59:56;;;;;;;19.37;14.23;;;;;;;;;;4949332;28;20226;-72
2022/02/28 05:02:25;;;;;;;18.67;13.70;;;;;;;;;;4955782;28;20309;-71
2022/02/28 05:05:00;;;;;;;21.60;14.00;;;;;;;;;;4947722;28;20222;-73
2022/02/28 05:07:27;;;;;;;20.87;14.37;;;;;;;;;;4939926;28;20658;-71
2022/02/28 05:09:55;;;;;;;19.53;13.80;;;;;;;;;;4922783;28;20321;-72
2022/02/28 05:12:21;;;;;;;20.00;13.93;;;;;;;;;;4901184;28;20629;-72
2022/02/28 05:14:51;;;;;;;21.97;14.27;;;;;;;;;;4917793;28;20217;-71
2022/02/28 05:17:18;;;;;;;21.17;15.13;;;;;;;;;;4921643;28;20779;-71
2022/02/28 05:19:45;;;;;;;19.10;13.63;;;;;;;;;;4962108;28;20223;-72
2022/02/28 05:22:15;;;;;;;20.93;14.07;;;;;;;;;;4967065;28;20310;-72
2022/02/28 05:24:51;;;;;;;21.80;14.33;;;;;;;;;;4924167;28;20222;-72
2022/02/28 05:27:22;;;;;;;20.97;14.10;;;;;;;;;;4950114;28;20227;-71
2022/02/28 05:29:48;;;;;;;20.80;14.87;;;;;;;;;;4955279;28;20235;-71
2022/02/28 05:32:16;;;;;;;22.00;15.37;;;;;;;;;;4974691;28;20231;-73
2022/02/28 05:35:07;;;;;;;20.30;13.70;;;;;;;;;;4972579;28;20248;-71
2022/02/28 05:37:52;;;;;;;20.73;14.00;;;;;;;;;;4942598;28;20221;-71
2022/02/28 05:40:18;;;;;;;23.30;15.17;;;;;;;;;;4959544;28;20225;-70
2022/02/28 05:42:46;;;;;;;24.33;15.17;;;;;;;;;;4940405;29;20355;-70
2022/02/28 05:45:14;;;;;;;21.90;14.57;;;;;;;;;;4922625;28;20217;-71
2022/02/28 05:47:49;;;;;;;22.00;15.13;;;;;;;;;;4977471;28;20285;-70
2022/02/28 05:50:14;;;;;;;20.27;15.07;;;;;;;;;;4950281;28;20712;-70
2022/02/28 05:52:40;;;;;;;22.70;14.77;;;;;;;;;;4966100;28;20313;-71
2022/02/28 05:55:06;;;;;;;21.17;15.60;;;;;;;;;;4922409;28;20612;-71
2022/02/28 05:57:36;;;;;;;23.23;15.07;;;;;;;;;;4953838;28;20238;-71
2022/02/28 06:00:05;;;;;;;23.57;15.97;;;;;;;;;;4927133;28;20718;-71
2022/02/28 06:02:38;;;;;;;23.93;16.17;;;;;;;;;;4974603;28;20252;-71
2022/02/28 06:05:06;;;;;;;23.20;15.93;;;;;;;;;;4967281;28;20231;-71
2022/02/28 06:07:34;;;;;;;22.90;16.43;;;;;;;;;;4939705;28;20226;-71
2022/02/28 06:10:02;;;;;;;23.93;16.60;;;;;;;;;;4937522;28;20643;-71
2022/02/28 06:12:30;;;;;;;21.97;15.43;;;;;;;;;;4963899;28;20219;-71
2022/02/28 06:14:58;;;;;;;23.73;15.80;;;;;;;;;;4930394;28;20697;-71
2022/02/28 06:17:23;;;;;;;25.20;16.00;;;;;;;;;;4937998;28;20237;-71
2022/02/28 06:19:51;;;;;;;24.47;16.37;;;;;;;;;;4964349;28;20225;-70
2022/02/28 06:22:21;;;;;;;21.90;16.27;;;;;;;;;;4948032;28;20309;-72
2022/02/28 06:24:49;;;;;;;23.00;16.70;;;;;;;;;;4963070;28;20226;-70
2022/02/28 06:27:14;;;;;;;22.37;16.40;;;;;;;;;;4913483;28;20713;-71
2022/02/28 06:29:43;;;;;;;24.33;15.90;;;;;;;;;;4970641;28;20218;-71
2022/02/28 06:32:09;;;;;;;25.50;17.07;;;;;;;;;;4945756;28;20231;-73
2022/02/28 06:34:35;;;;;;;27.13;16.73;;;;;;;;;;4931960;28;20222;-72
2022/02/28 06:37:00;;;;;;;25.83;16.27;;;;;;;;;;4955634;28;20222;-72
2022/02/28 06:39:26;;;;;;;26.10;16.93;;;;;;;;;;4952899;28;20210;-74
2022/02/28 06:41:52;;;;;;;23.73;17.47;;;;;;;;;;4930858;28;20225;-71
2022/02/28 06:44:20;;;;;;;24.63;17.30;;;;;;;;;;4963409;28;20776;-70
2022/02/28 06:46:52;;;;;;;26.17;17.63;;;;;;;;;;4940222;28;20266;-73
2022/02/28 06:49:18;;;;;;;23.87;17.23;;;;;;;;;;4945958;28;20287;-73
2022/02/28 06:51:43;;;;;;;29.00;19.37;;;;;;;;;;4961603;28;20870;-70
2022/02/28 06:54:09;;;;;;;27.93;18.73;;;;;;;;;;4962700;28;20357;-71
2022/02/28 06:56:37;;;;;;;26.23;18.00;;;;;;;;;;4965514;28;20231;-71
2022/02/28 06:59:02;;;;;;;27.43;18.97;;;;;;;;;;4955071;28;20309;-74
2022/02/28 07:01:32;;;;;;;25.13;18.73;;;;;;;;;;4939919;28;20220;-75
2022/02/28 07:04:21;;;;;;;26.70;18.13;;;;;;;;;;4973421;28;20707;-73
2022/02/28 07:06:46;;;;;;;26.17;18.27;;;;;;;;;;4937944;28;20222;-72
2022/02/28 07:09:12;;;;;;;27.73;19.00;;;;;;;;;;4931951;28;20302;-73
2022/02/28 07:11:40;;;;;;;27.60;19.13;;;;;;;;;;4962277;28;20219;-72
2022/02/28 07:14:08;;;;;;;27.87;19.43;;;;;;;;;;4964537;28;20223;-73
2022/02/28 07:16:36;;;;;;;25.47;18.50;;;;;;;;;;4963646;28;20292;-73
2022/02/28 07:19:02;;;;;;;32.20;20.47;;;;;;;;;;4928580;29;20254;-73
2022/02/28 07:21:31;;;;;;;26.77;18.87;;;;;;;;;;4921588;28;20226;-73
2022/02/28 07:23:57;;;;;;;27.67;18.73;;;;;;;;;;4973075;28;20710;-73
2022/02/28 07:26:25;;;;;;;27.80;19.83;;;;;;;;;;4968441;28;20623;-74
2022/02/28 07:28:53;;;;;;;28.97;19.53;;;;;;;;;;4947501;28;20225;-75
2022/02/28 07:31:21;;;;;;;28.17;19.13;;;;;;;;;;4960880;28;20221;-73
2022/02/28 07:33:46;;;;;;;28.23;19.63;;;;;;;;;;4937732;28;20361;-73
2022/02/28 07:36:12;;;;;;;30.97;19.90;;;;;;;;;;4961091;28;20234;-73
2022/02/28 07:38:39;;;;;;;29.20;20.23;;;;;;;;;;4930681;28;20234;-74
2022/02/28 07:41:05;;;;;;;29.00;20.50;;;;;;;;;;4963532;28;20248;-73
2022/02/28 07:43:31;;;;;;;27.10;19.80;;;;;;;;;;4944677;28;20309;-74
2022/02/28 07:45:56;;;;;;;25.87;19.93;;;;;;;;;;4950833;28;20314;-73
2022/02/28 07:48:24;;;;;;;25.93;19.57;;;;;;;;;;4971419;28;20228;-74
2022/02/28 07:50:50;;;;;;;26.03;20.37;;;;;;;;;;4966454;28;20222;-73
2022/02/28 07:53:18;;;;;;;29.70;21.27;;;;;;;;;;4922060;28;20667;-74
2022/02/28 07:55:46;;;;;;;27.20;19.73;;;;;;;;;;4934960;28;20248;-74
2022/02/28 07:58:12;;;;;;;27.80;19.90;;;;;;;;;;4915944;28;20696;-73
2022/02/28 08:00:38;;;;;;;26.67;20.27;;;;;;;;;;4966851;28;20237;-74
2022/02/28 08:03:03;;;;;;;28.10;20.20;;;;;;;;;;4973370;28;20226;-73
2022/02/28 08:05:31;;;;;;;28.53;20.00;;;;;;;;;;4951847;28;20245;-74
2022/02/28 08:07:57;;;;;;;28.97;21.20;;;;;;;;;;4922099;28;20666;-73
2022/02/28 08:10:25;;;;;;;29.13;20.13;;;;;;;;;;4943811;28;20345;-73
2022/02/28 08:12:50;;;;;;;29.17;20.63;;;;;;;;;;4969009;28;20238;-74
2022/02/28 08:15:16;;;;;;;26.37;19.47;;;;;;;;;;4955201;28;20608;-73
2022/02/28 08:17:45;;;;;;;27.67;19.43;;;;;;;;;;4941256;28;20328;-73
2022/02/28 08:20:10;;;;;;;30.97;19.10;;;;;;;;;;4948696;28;20234;-73
2022/02/28 08:22:38;;;;;;;27.37;19.97;;;;;;;;;;4964884;28;20233;-73
2022/02/28 08:25:05;;;;;;;25.20;19.33;;;;;;;;;;4941217;28;20257;-74
2022/02/28 08:27:33;;;;;;;25.87;19.70;;;;;;;;;;4933093;28;20237;-73
2022/02/28 08:29:59;;;;;;;24.70;19.53;;;;;;;;;;4977812;28;20227;-73
2022/02/28 08:32:25;;;;;;;26.53;18.63;;;;;;;;;;4952062;28;20250;-72
2022/02/28 08:34:55;;;;;;;27.20;18.63;;;;;;;;;;4924571;28;20353;-74
2022/02/28 08:37:21;;;;;;;24.73;18.10;;;;;;;;;;4964357;28;20316;-73
2022/02/28 08:39:49;;;;;;;24.97;18.83;;;;;;;;;;4934357;28;20233;-74
2022/02/28 08:42:14;;;;;;;26.87;19.67;;;;;;;;;;4967445;28;20218;-73
2022/02/28 08:44:40;;;;;;;25.00;18.13;;;;;;;;;;4953406;28;20718;-73
2022/02/28 08:47:05;;;;;;;26.53;18.73;;;;;;;;;;4958027;28;20225;-73
2022/02/28 08:49:31;;;;;;;26.13;19.00;;;;;;;;;;4967188;28;20689;-73
2022/02/28 08:51:56;;;;;;;27.40;18.43;;;;;;;;;;4945021;28;20218;-73
2022/02/28 08:54:22;;;;;;;25.70;18.40;;;;;;;;;;4956449;28;20708;-72
2022/02/28 08:56:52;;;;;;;25.47;18.67;;;;;;;;;;4963023;28;20215;-72
2022/02/28 08:59:18;;;;;;;24.67;18.33;;;;;;;;;;4921051;28;20222;-73
2022/02/28 09:01:50;;;;;;;24.33;18.27;;;;;;;;;;4965279;28;20227;-73
2022/02/28 09:04:18;;;;;;;25.30;18.27;;;;;;;;;;4966438;28;20333;-72
2022/02/28 09:06:46;;;;;;;23.93;17.93;;;;;;;;;;4968613;28;20229;-73
2022/02/28 09:09:17;;;;;;;24.60;17.77;;;;;;;;;;4945813;28;20214;-73
2022/02/28 09:11:44;;;;;;;26.27;18.10;;;;;;;;;;4968488;28;20218;-73
2022/02/28 09:14:10;;;;;;;25.47;18.13;;;;;;;;;;4926923;28;21085;-73
2022/02/28 09:16:36;;;;;;;33.73;25.13;;;;;;;;;;4963028;28;20234;-74
2022/02/28 09:19:04;;;;;;;26.73;19.03;;;;;;;;;;4926929;28;20264;-73
2022/02/28 09:21:29;;;;;;;24.03;17.47;;;;;;;;;;4953858;28;20245;-74
2022/02/28 09:24:00;;;;;;;24.13;17.67;;;;;;;;;;4915580;28;20227;-74
2022/02/28 09:26:25;;;;;;;22.70;17.10;;;;;;;;;;4959184;28;20242;-74
2022/02/28 09:28:51;;;;;;;20.63;16.63;;;;;;;;;;4953143;28;20306;-74
2022/02/28 09:31:16;;;;;;;20.87;16.03;;;;;;;;;;4957114;28;20308;-73
2022/02/28 09:33:42;;;;;;;25.20;17.80;;;;;;;;;;4957000;28;20230;-73
2022/02/28 09:36:08;;;;;;;24.30;18.70;;;;;;;;;;4963365;28;20230;-74
2022/02/28 09:38:34;;;;;;;24.67;16.53;;;;;;;;;;4963922;28;20647;-73
2022/02/28 09:41:00;;;;;;;22.33;16.07;;;;;;;;;;4947181;28;20214;-73
2022/02/28 09:43:35;;;;;;;22.57;16.33;;;;;;;;;;4937304;28;20229;-75
2022/02/28 09:46:19;;;;;;;23.67;17.00;;;;;;;;;;4958102;28;20221;-74
2022/02/28 09:49:03;;;;;;;23.83;16.77;;;;;;;;;;4939643;28;20292;-74
2022/02/28 09:51:47;;;;;;;22.10;15.83;;;;;;;;;;4961712;28;20225;-75
2022/02/28 09:54:45;;;;;;;22.93;16.70;;;;;;;;;;4936617;28;20219;-75
2022/02/28 09:57:50;;;;;;;21.27;15.37;;;;;;;;;;4947176;28;20246;-76
2022/02/28 10:00:46;;;;;;;19.17;14.90;;;;;;;;;;4944672;28;20218;-76
2022/02/28 10:03:12;;;;;;;20.90;16.30;;;;;;;;;;4953893;28;20246;-75
2022/02/28 10:05:40;;;;;;;21.23;14.90;;;;;;;;;;4936495;28;20245;-74
2022/02/28 10:08:08;;;;;;;20.47;15.30;;;;;;;;;;4955981;28;20878;-74
2022/02/28 10:10:36;;;;;;;19.97;15.70;;;;;;;;;;4943383;28;20226;-74
2022/02/28 10:13:02;;;;;;;21.43;15.63;;;;;;;;;;4961441;28;20315;-73
2022/02/28 10:15:35;;;;;;;19.10;15.17;;;;;;;;;;4939412;28;20724;-74
2022/02/28 10:18:02;;;;;;;21.63;15.70;;;;;;;;;;4966639;28;20226;-73
2022/02/28 10:20:38;;;;;;;19.77;14.57;;;;;;;;;;4959137;28;20229;-74
2022/02/28 10:23:09;;;;;;;18.87;15.63;;;;;;;;;;4959790;28;20269;-73
2022/02/28 10:25:53;;;;;;;18.93;15.20;;;;;;;;;;4950517;28;20253;-74
2022/02/28 10:28:54;;;;;;;24.17;16.17;;;;;;;;;;4949862;28;20226;-74
2022/02/28 10:31:42;;;;;;;19.57;15.47;;;;;;;;;;4938790;28;20704;-74
2022/02/28 10:34:27;;;;;;;20.33;14.97;;;;;;;;;;4971881;28;20724;-74
2022/02/28 10:37:12;;;;;;;19.40;16.00;;;;;;;;;;4927013;28;20240;-74
2022/02/28 10:39:39;;;;;;;22.27;16.53;;;;;;;;;;4944673;28;20229;-74
2022/02/28 10:42:10;;;;;;;20.97;14.97;;;;;;;;;;4928536;28;20258;-74
2022/02/28 10:44:35;;;;;;;20.43;15.87;;;;;;;;;;4944327;28;20233;-74
2022/02/28 10:47:07;;;;;;;19.63;15.63;;;;;;;;;;4935434;28;20218;-75
2022/02/28 10:49:35;;;;;;;19.97;15.20;;;;;;;;;;4935919;28;20229;-75
2022/02/28 10:52:02;;;;;;;18.60;14.63;;;;;;;;;;4957787;28;20227;-74
2022/02/28 10:54:38;;;;;;;17.87;14.50;;;;;;;;;;4970259;28;20589;-74
2022/02/28 10:57:07;;;;;;;20.20;15.20;;;;;;;;;;4964548;28;20624;-74
2022/02/28 10:59:51;;;;;;;17.47;13.77;;;;;;;;;;4961597;28;20596;-72
2022/02/28 11:02:26;;;;;;;18.47;14.30;;;;;;;;;;4939655;28;20222;-73
2022/02/28 11:05:12;;;;;;;17.77;14.63;;;;;;;;;;4937520;28;20260;-74
2022/02/28 11:07:43;;;;;;;18.83;14.50;;;;;;;;;;4952484;28;20227;-73
2022/02/28 11:10:10;;;;;;;19.63;14.13;;;;;;;;;;4938203;28;20222;-74
2022/02/28 11:12:41;;;;;;;19.03;15.03;;;;;;;;;;4947829;28;20225;-74
2022/02/28 11:15:14;;;;;;;17.97;14.97;;;;;;;;;;4928588;28;20228;-74
2022/02/28 11:17:40;;;;;;;19.17;15.03;;;;;;;;;;4938121;29;20227;-74
2022/02/28 11:20:13;;;;;;;18.77;14.97;;;;;;;;;;4939485;28;20222;-74
2022/02/28 11:22:39;;;;;;;18.17;14.83;;;;;;;;;;4964509;28;20291;-74
2022/02/28 11:25:11;;;;;;;18.17;14.37;;;;;;;;;;4950069;28;20229;-74
2022/02/28 11:27:37;;;;;;;18.07;14.60;;;;;;;;;;4937076;28;20221;-74
2022/02/28 11:30:11;;;;;;;16.70;13.17;;;;;;;;;;4930014;29;20226;-75
2022/02/28 11:32:39;;;;;;;20.10;14.80;;;;;;;;;;4937005;28;20314;-73
2022/02/28 11:35:43;;;;;;;18.40;14.57;;;;;;;;;;4945830;28;20306;-74
2022/02/28 11:38:18;;;;;;;16.73;13.57;;;;;;;;;;4964950;28;20221;-73
2022/02/28 11:41:16;;;;;;;19.37;14.20;;;;;;;;;;4948689;28;20228;-73
2022/02/28 11:43:46;;;;;;;17.40;13.40;;;;;;;;;;4956043;28;20222;-73
2022/02/28 11:46:16;;;;;;;18.10;14.20;;;;;;;;;;4922378;28;20261;-74
2022/02/28 11:48:47;;;;;;;18.27;14.07;;;;;;;;;;4970711;28;20240;-74
2022/02/28 11:51:31;;;;;;;19.50;14.90;;;;;;;;;;4947534;28;20237;-74
2022/02/28 11:53:59;;;;;;;18.23;14.40;;;;;;;;;;4969045;28;20234;-74
2022/02/28 11:56:28;;;;;;;17.53;14.17;;;;;;;;;;4918772;29;20698;-73
2022/02/28 11:58:54;;;;;;;19.90;15.17;;;;;;;;;;4963829;28;20238;-74
2022/02/28 12:01:36;;;;;;;17.37;13.47;;;;;;;;;;4929117;28;20229;-74
2022/02/28 12:04:08;;;;;;;18.33;13.37;;;;;;;;;;4950400;28;20252;-75
2022/02/28 12:06:52;;;;;;;18.17;13.43;;;;;;;;;;4967154;28;20239;-74
2022/02/28 12:09:36;;;;;;;17.57;14.00;;;;;;;;;;4963004;28;20227;-74
2022/02/28 12:12:33;;;;;;;18.37;13.63;;;;;;;;;;4940664;28;20230;-74
2022/02/28 12:15:02;;;;;;;15.50;13.03;;;;;;;;;;4961977;28;20219;-75
2022/02/28 12:17:40;;;;;;;15.60;12.30;;;;;;;;;;4963117;28;20245;-75
2022/02/28 12:20:14;;;;;;;15.97;12.87;;;;;;;;;;4965748;28;20228;-75
2022/02/28 12:22:52;;;;;;;17.90;13.30;;;;;;;;;;4960233;28;20221;-75
2022/02/28 12:25:51;;;;;;;18.27;14.53;;;;;;;;;;4953171;28;20230;-74
2022/02/28 12:28:26;;;;;;;17.57;13.90;;;;;;;;;;4969545;28;20226;-74
2022/02/28 12:30:52;;;;;;;18.47;14.70;;;;;;;;;;4967635;28;20260;-74
2022/02/28 12:33:20;;;;;;;17.70;14.33;;;;;;;;;;4954303;28;20233;-72
2022/02/28 12:35:57;;;;;;;18.57;14.23;;;;;;;;;;4970865;28;20219;-73
2022/02/28 12:38:27;;;;;;;18.43;13.67;;;;;;;;;;4969238;28;20366;-74
2022/02/28 12:40:54;;;;;;;17.20;14.07;;;;;;;;;;4928354;29;20246;-75
2022/02/28 12:43:23;;;;;;;16.17;13.40;;;;;;;;;;4946162;28;20219;-74
2022/02/28 12:45:53;;;;;;;19.60;14.20;;;;;;;;;;4944866;28;20219;-74
2022/02/28 12:48:21;;;;;;;15.67;13.60;;;;;;;;;;4969991;28;20225;-75
2022/02/28 12:50:48;;;;;;;16.93;14.10;;;;;;;;;;4965633;28;20246;-74
2022/02/28 12:53:17;;;;;;;17.30;13.93;;;;;;;;;;4951445;28;20226;-75
2022/02/28 12:55:57;;;;;;;17.70;14.37;;;;;;;;;;4939929;28;20222;-75
2022/02/28 12:58:27;;;;;;;17.70;14.23;;;;;;;;;;4940058;28;20285;-74
2022/02/28 13:00:59;;;;;;;18.00;13.70;;;;;;;;;;4952637;28;20229;-74
2022/02/28 13:03:25;;;;;;;18.10;14.07;;;;;;;;;;4907212;28;20303;-76
2022/02/28 13:05:54;;;;;;;17.10;13.97;;;;;;;;;;4965491;28;20604;-75
2022/02/28 13:08:20;;;;;;;16.50;13.37;;;;;;;;;;4966930;28;20221;-74
2022/02/28 13:10:48;;;;;;;18.03;13.37;;;;;;;;;;4945702;28;20219;-75
2022/02/28 13:13:24;;;;;;;17.40;14.43;;;;;;;;;;4954172;28;20308;-73
2022/02/28 13:15:59;;;;;;;17.20;14.17;;;;;;;;;;4950621;28;20222;-74
2022/02/28 13:18:27;;;;;;;15.93;13.03;;;;;;;;;;4951850;28;20825;-72
2022/02/28 13:20:52;;;;;;;17.43;12.87;;;;;;;;;;4965474;28;20249;-73
2022/02/28 13:23:21;;;;;;;17.57;13.43;;;;;;;;;;4964151;28;20229;-74
2022/02/28 13:25:54;;;;;;;14.47;12.27;;;;;;;;;;4930670;29;20275;-75
2022/02/28 13:28:36;;;;;;;19.03;13.10;;;;;;;;;;4922253;28;20231;-75
2022/02/28 13:31:07;;;;;;;14.03;11.93;;;;;;;;;;4963812;28;20254;-75
2022/02/28 13:33:36;;;;;;;15.30;13.37;;;;;;;;;;4953489;28;20724;-75
2022/02/28 13:36:01;;;;;;;16.17;13.07;;;;;;;;;;4963156;28;20238;-76
2022/02/28 13:38:27;;;;;;;15.70;12.53;;;;;;;;;;4961828;28;20223;-74
2022/02/28 13:40:55;;;;;;;14.20;12.00;;;;;;;;;;4952667;28;20706;-73
2022/02/28 13:43:32;;;;;;;16.43;12.90;;;;;;;;;;4947227;28;20234;-75
2022/02/28 13:46:01;;;;;;;16.50;12.93;;;;;;;;;;4959710;28;20594;-74
2022/02/28 13:48:28;;;;;;;17.80;13.07;;;;;;;;;;4956032;28;20560;-75
2022/02/28 13:51:02;;;;;;;15.90;12.53;;;;;;;;;;4943969;28;20656;-75
2022/02/28 13:53:45;;;;;;;15.40;12.97;;;;;;;;;;4965036;28;20215;-75
2022/02/28 13:56:29;;;;;;;15.33;12.73;;;;;;;;;;4940591;28;20716;-74
2022/02/28 13:59:19;;;;;;;15.23;12.40;;;;;;;;;;4950131;28;20218;-74
2022/02/28 14:01:55;;;;;;;15.13;12.17;;;;;;;;;;4934394;28;20693;-73
2022/02/28 14:04:21;;;;;;;16.00;12.90;;;;;;;;;;4938564;28;20217;-74
2022/02/28 14:06:58;;;;;;;15.70;13.13;;;;;;;;;;4955533;28;20226;-74
2022/02/28 14:09:27;;;;;;;16.07;12.37;;;;;;;;;;4949059;28;20221;-75
2022/02/28 14:11:55;;;;;;;13.90;11.40;;;;;;;;;;4958461;28;20265;-72
2022/02/28 14:14:23;;;;;;;14.10;12.17;;;;;;;;;;4968250;28;20309;-73
2022/02/28 14:17:08;;;;;;;16.27;12.77;;;;;;;;;;4972676;28;20236;-73
2022/02/28 14:19:40;;;;;;;16.37;13.43;;;;;;;;;;4942834;28;20596;-74
2022/02/28 14:22:34;;;;;;;23.87;17.83;;;;;;;;;;4942790;28;20244;-75
2022/02/28 14:25:31;;;;;;;14.57;11.87;;;;;;;;;;4963648;28;20273;-75
2022/02/28 14:28:20;;;;;;;20.13;14.87;;;;;;;;;;4941864;28;20310;-73
2022/02/28 14:31:06;;;;;;;17.73;14.37;;;;;;;;;;4937509;28;20234;-73
2022/02/28 14:33:32;;;;;;;19.97;15.73;;;;;;;;;;4922870;28;20231;-74
2022/02/28 14:35:58;;;;;;;16.20;12.80;;;;;;;;;;4977291;28;20229;-74